sensor_id;sensor_type;location;lat;lon;timestamp;temperature;humidity
20376;DHT22;10347;51.828;6.466;2024-03-23T00:54:42;10.10;99.90
20376;DHT22;10347;51.828;6.466;2024-03-23T00:57:07;10.00;99.90
20376;DHT22;10347;51.828;6.466;2024-03-23T00:59:33;10.10;99.90
20376;DHT22;10347;51.828;6.466;2024-03-23T01:01:59;10.10;99.90
20376;DHT22;10347;51.828;6.466;2024-03-23T01:04:24;10.00;99.90
20376;DHT22;10347;51.828;6.466;2024-03-23T01:06:50;10.00;99.90
20376;DHT22;10347;51.828;6.466;2024-03-23T01:09:15;10.00;99.90
20376;DHT22;10347;51.828;6.466;2024-03-23T01:11:41;10.00;99.90
20376;DHT22;10347;51.828;6.466;2024-03-23T01:14:07;9.90;99.90
20376;DHT22;10347;51.828;6.466;2024-03-23T01:16:32;9.90;99.90
20376;DHT22;10347;51.828;6.466;2024-03-23T01:18:58;9.90;99.90
20376;DHT22;10347;51.828;6.466;2024-03-23T01:21:24;9.90;99.90
20376;DHT22;10347;51.828;6.466;2024-03-23T01:23:49;9.90;99.90
20376;DHT22;10347;51.828;6.466;2024-03-23T01:26:15;9.80;99.90
20376;DHT22;10347;51.828;6.466;2024-03-23T01:28:40;9.70;99.90
20376;DHT22;10347;51.828;6.466;2024-03-23T01:31:06;9.70;99.90
20376;DHT22;10347;51.828;6.466;2024-03-23T01:33:32;9.60;99.90
20376;DHT22;10347;51.828;6.466;2024-03-23T01:35:57;9.60;99.90
20376;DHT22;10347;51.828;6.466;2024-03-23T01:38:23;9.50;99.90
20376;DHT22;10347;51.828;6.466;2024-03-23T01:40:49;9.60;99.90
20376;DHT22;10347;51.828;6.466;2024-03-23T01:43:14;9.60;99.90
20376;DHT22;10347;51.828;6.466;2024-03-23T01:45:40;9.50;99.90
20376;DHT22;10347;51.828;6.466;2024-03-23T01:48:06;9.50;99.90
20376;DHT22;10347;51.828;6.466;2024-03-23T01:50:32;9.50;99.90
20376;DHT22;10347;51.828;6.466;2024-03-23T01:53:03;9.50;99.90
20376;DHT22;10347;51.828;6.466;2024-03-23T01:55:32;9.50;99.90
20376;DHT22;10347;51.828;6.466;2024-03-23T01:57:57;9.50;99.90
20376;DHT22;10347;51.828;6.466;2024-03-23T02:00:23;9.60;99.90
20376;DHT22;10347;51.828;6.466;2024-03-23T02:02:49;9.60;99.90
20376;DHT22;10347;51.828;6.466;2024-03-23T02:05:15;9.60;99.90
20376;DHT22;10347;51.828;6.466;2024-03-23T02:07:41;9.60;99.90
20376;DHT22;10347;51.828;6.466;2024-03-23T02:10:09;9.70;99.90
20376;DHT22;10347;51.828;6.466;2024-03-23T02:12:40;9.70;99.90
20376;DHT22;10347;51.828;6.466;2024-03-23T02:15:06;9.70;99.90
20376;DHT22;10347;51.828;6.466;2024-03-23T02:17:34;9.70;99.90
20376;DHT22;10347;51.828;6.466;2024-03-23T02:20:01;9.70;99.90
20376;DHT22;10347;51.828;6.466;2024-03-23T02:22:37;9.70;99.90
20376;DHT22;10347;51.828;6.466;2024-03-23T02:25:06;9.60;99.90
20376;DHT22;10347;51.828;6.466;2024-03-23T02:27:32;9.70;99.90
20376;DHT22;10347;51.828;6.466;2024-03-23T02:29:59;9.60;99.90
20376;DHT22;10347;51.828;6.466;2024-03-23T02:32:24;9.60;99.90
20376;DHT22;10347;51.828;6.466;2024-03-23T02:34:50;9.60;99.90
20376;DHT22;10347;51.828;6.466;2024-03-23T02:37:15;9.70;99.90
20376;DHT22;10347;51.828;6.466;2024-03-23T02:39:41;9.60;99.90
20376;DHT22;10347;51.828;6.466;2024-03-23T02:42:06;9.60;99.90
20376;DHT22;10347;51.828;6.466;2024-03-23T02:44:32;9.60;99.90
20376;DHT22;10347;51.828;6.466;2024-03-23T02:46:58;9.70;99.90
20376;DHT22;10347;51.828;6.466;2024-03-23T02:49:24;9.70;99.90
20376;DHT22;10347;51.828;6.466;2024-03-23T02:51:49;9.60;99.90
20376;DHT22;10347;51.828;6.466;2024-03-23T02:54:16;9.70;99.90
20376;DHT22;10347;51.828;6.466;2024-03-23T02:56:41;9.70;99.90
20376;DHT22;10347;51.828;6.466;2024-03-23T02:59:07;9.60;99.90
20376;DHT22;10347;51.828;6.466;2024-03-23T03:01:32;9.60;99.90
20376;DHT22;10347;51.828;6.466;2024-03-23T03:03:58;9.60;99.90
20376;DHT22;10347;51.828;6.466;2024-03-23T03:06:27;9.60;99.90
20376;DHT22;10347;51.828;6.466;2024-03-23T03:08:52;9.60;99.90
20376;DHT22;10347;51.828;6.466;2024-03-23T03:11:18;9.50;99.90
20376;DHT22;10347;51.828;6.466;2024-03-23T03:13:44;9.50;99.90
20376;DHT22;10347;51.828;6.466;2024-03-23T03:16:12;9.50;99.90
20376;DHT22;10347;51.828;6.466;2024-03-23T03:18:38;9.30;99.90
20376;DHT22;10347;51.828;6.466;2024-03-23T03:21:05;9.50;99.90
20376;DHT22;10347;51.828;6.466;2024-03-23T03:23:34;9.40;99.90
20376;DHT22;10347;51.828;6.466;2024-03-23T03:25:59;9.40;99.90
20376;DHT22;10347;51.828;6.466;2024-03-23T03:28:25;9.40;99.90
20376;DHT22;10347;51.828;6.466;2024-03-23T03:30:51;9.40;99.90
20376;DHT22;10347;51.828;6.466;2024-03-23T03:33:17;9.40;99.90
20376;DHT22;10347;51.828;6.466;2024-03-23T03:35:42;9.50;99.90
20376;DHT22;10347;51.828;6.466;2024-03-23T03:38:08;9.40;99.90
20376;DHT22;10347;51.828;6.466;2024-03-23T03:40:35;9.50;99.90
20376;DHT22;10347;51.828;6.466;2024-03-23T03:43:01;9.40;99.90
20376;DHT22;10347;51.828;6.466;2024-03-23T03:45:26;9.40;99.90
20376;DHT22;10347;51.828;6.466;2024-03-23T03:47:52;9.40;99.90
20376;DHT22;10347;51.828;6.466;2024-03-23T03:50:18;9.30;99.90
20376;DHT22;10347;51.828;6.466;2024-03-23T03:52:43;9.20;99.90
20376;DHT22;10347;51.828;6.466;2024-03-23T03:55:13;9.20;99.90
20376;DHT22;10347;51.828;6.466;2024-03-23T03:57:39;9.20;99.90
20376;DHT22;10347;51.828;6.466;2024-03-23T04:00:05;9.20;99.90
20376;DHT22;10347;51.828;6.466;2024-03-23T04:02:31;9.20;99.90
20376;DHT22;10347;51.828;6.466;2024-03-23T04:04:57;9.10;99.90
20376;DHT22;10347;51.828;6.466;2024-03-23T04:07:22;9.20;99.90
20376;DHT22;10347;51.828;6.466;2024-03-23T04:09:51;9.20;99.90
20376;DHT22;10347;51.828;6.466;2024-03-23T04:12:16;9.20;99.90
20376;DHT22;10347;51.828;6.466;2024-03-23T04:14:42;9.20;99.90
20376;DHT22;10347;51.828;6.466;2024-03-23T04:17:08;9.20;99.90
20376;DHT22;10347;51.828;6.466;2024-03-23T04:19:33;9.20;99.90
20376;DHT22;10347;51.828;6.466;2024-03-23T04:21:59;9.20;99.90
20376;DHT22;10347;51.828;6.466;2024-03-23T04:24:24;9.20;99.90
20376;DHT22;10347;51.828;6.466;2024-03-23T04:26:52;9.20;99.90
20376;DHT22;10347;51.828;6.466;2024-03-23T04:29:17;9.20;99.90
20376;DHT22;10347;51.828;6.466;2024-03-23T04:31:43;9.20;99.90
20376;DHT22;10347;51.828;6.466;2024-03-23T04:34:09;9.20;99.90
20376;DHT22;10347;51.828;6.466;2024-03-23T04:36:34;9.20;99.90
20376;DHT22;10347;51.828;6.466;2024-03-23T04:39:00;9.20;99.90
20376;DHT22;10347;51.828;6.466;2024-03-23T04:41:26;9.20;99.90
20376;DHT22;10347;51.828;6.466;2024-03-23T04:43:52;9.20;99.90
20376;DHT22;10347;51.828;6.466;2024-03-23T04:46:17;9.20;99.90
20376;DHT22;10347;51.828;6.466;2024-03-23T04:48:43;9.20;99.90
20376;DHT22;10347;51.828;6.466;2024-03-23T04:51:10;9.20;99.90
20376;DHT22;10347;51.828;6.466;2024-03-23T04:53:38;9.10;99.90
20376;DHT22;10347;51.828;6.466;2024-03-23T04:56:03;9.10;99.90
20376;DHT22;10347;51.828;6.466;2024-03-23T04:58:30;9.10;99.90
20376;DHT22;10347;51.828;6.466;2024-03-23T05:00:56;9.10;99.90
20376;DHT22;10347;51.828;6.466;2024-03-23T05:03:22;9.10;99.90
20376;DHT22;10347;51.828;6.466;2024-03-23T05:05:48;9.10;99.90
20376;DHT22;10347;51.828;6.466;2024-03-23T05:08:17;9.10;99.90
20376;DHT22;10347;51.828;6.466;2024-03-23T05:10:43;9.10;99.90
20376;DHT22;10347;51.828;6.466;2024-03-23T05:13:09;9.10;99.90
20376;DHT22;10347;51.828;6.466;2024-03-23T05:15:35;9.10;99.90
20376;DHT22;10347;51.828;6.466;2024-03-23T05:18:01;9.10;99.90
20376;DHT22;10347;51.828;6.466;2024-03-23T05:20:26;9.00;99.90
20376;DHT22;10347;51.828;6.466;2024-03-23T05:22:52;9.00;99.90
20376;DHT22;10347;51.828;6.466;2024-03-23T05:25:18;9.00;99.90
20376;DHT22;10347;51.828;6.466;2024-03-23T05:27:43;8.90;99.90
20376;DHT22;10347;51.828;6.466;2024-03-23T05:30:09;8.90;99.90
20376;DHT22;10347;51.828;6.466;2024-03-23T05:32:37;8.90;99.90
20376;DHT22;10347;51.828;6.466;2024-03-23T05:35:06;9.00;99.90
20376;DHT22;10347;51.828;6.466;2024-03-23T05:37:33;9.00;99.90
20376;DHT22;10347;51.828;6.466;2024-03-23T05:40:00;8.90;99.90
20376;DHT22;10347;51.828;6.466;2024-03-23T05:42:25;8.90;99.90
20376;DHT22;10347;51.828;6.466;2024-03-23T05:44:51;8.90;99.90
20376;DHT22;10347;51.828;6.466;2024-03-23T05:47:17;8.90;99.90
20376;DHT22;10347;51.828;6.466;2024-03-23T05:49:43;8.90;99.90
20376;DHT22;10347;51.828;6.466;2024-03-23T05:52:09;8.90;99.90
20376;DHT22;10347;51.828;6.466;2024-03-23T05:54:35;8.90;99.90
20376;DHT22;10347;51.828;6.466;2024-03-23T05:57:01;8.90;99.90
20376;DHT22;10347;51.828;6.466;2024-03-23T05:59:27;8.90;99.90
20376;DHT22;10347;51.828;6.466;2024-03-23T06:01:53;8.90;99.90
20376;DHT22;10347;51.828;6.466;2024-03-23T06:04:19;8.90;99.90
20376;DHT22;10347;51.828;6.466;2024-03-23T06:06:45;8.90;99.90
20376;DHT22;10347;51.828;6.466;2024-03-23T06:09:11;8.80;99.90
20376;DHT22;10347;51.828;6.466;2024-03-23T06:11:36;8.80;99.90
20376;DHT22;10347;51.828;6.466;2024-03-23T06:14:02;8.80;99.90
20376;DHT22;10347;51.828;6.466;2024-03-23T06:16:28;8.80;99.90
20376;DHT22;10347;51.828;6.466;2024-03-23T06:18:53;8.80;99.90
20376;DHT22;10347;51.828;6.466;2024-03-23T06:21:20;8.80;99.90
20376;DHT22;10347;51.828;6.466;2024-03-23T06:23:46;8.70;99.90
20376;DHT22;10347;51.828;6.466;2024-03-23T06:26:19;8.70;99.90
20376;DHT22;10347;51.828;6.466;2024-03-23T06:28:45;8.70;99.90
20376;DHT22;10347;51.828;6.466;2024-03-23T06:31:11;8.70;99.90
20376;DHT22;10347;51.828;6.466;2024-03-23T06:33:37;8.70;99.90
20376;DHT22;10347;51.828;6.466;2024-03-23T06:36:04;8.70;99.90
20376;DHT22;10347;51.828;6.466;2024-03-23T06:38:30;8.70;99.90
20376;DHT22;10347;51.828;6.466;2024-03-23T06:40:55;8.70;99.90
20376;DHT22;10347;51.828;6.466;2024-03-23T06:43:21;8.70;99.90
20376;DHT22;10347;51.828;6.466;2024-03-23T06:45:54;8.70;99.90
20376;DHT22;10347;51.828;6.466;2024-03-23T06:48:20;8.80;99.90
20376;DHT22;10347;51.828;6.466;2024-03-23T06:50:46;8.70;99.90
20376;DHT22;10347;51.828;6.466;2024-03-23T06:53:12;8.70;99.90
20376;DHT22;10347;51.828;6.466;2024-03-23T06:55:38;8.70;99.90
20376;DHT22;10347;51.828;6.466;2024-03-23T06:58:04;8.70;99.90
20376;DHT22;10347;51.828;6.466;2024-03-23T07:00:30;8.70;99.90
20376;DHT22;10347;51.828;6.466;2024-03-23T07:02:56;8.80;99.90
20376;DHT22;10347;51.828;6.466;2024-03-23T07:05:21;8.70;99.90
20376;DHT22;10347;51.828;6.466;2024-03-23T07:07:47;8.70;99.90
20376;DHT22;10347;51.828;6.466;2024-03-23T07:10:13;8.80;99.90
20376;DHT22;10347;51.828;6.466;2024-03-23T07:12:38;8.70;99.90
20376;DHT22;10347;51.828;6.466;2024-03-23T07:15:04;8.70;99.90
20376;DHT22;10347;51.828;6.466;2024-03-23T07:17:30;8.80;99.90
20376;DHT22;10347;51.828;6.466;2024-03-23T07:19:57;8.80;99.90
20376;DHT22;10347;51.828;6.466;2024-03-23T07:22:23;8.70;99.90
20376;DHT22;10347;51.828;6.466;2024-03-23T07:24:49;8.80;99.90
20376;DHT22;10347;51.828;6.466;2024-03-23T07:27:15;8.90;99.90
20376;DHT22;10347;51.828;6.466;2024-03-23T07:29:40;8.80;99.90
20376;DHT22;10347;51.828;6.466;2024-03-23T07:32:06;8.80;99.90
20376;DHT22;10347;51.828;6.466;2024-03-23T07:34:32;8.80;99.90
20376;DHT22;10347;51.828;6.466;2024-03-23T07:36:57;8.90;99.90
20376;DHT22;10347;51.828;6.466;2024-03-23T07:39:23;8.90;99.90
20376;DHT22;10347;51.828;6.466;2024-03-23T07:41:48;8.90;99.90
20376;DHT22;10347;51.828;6.466;2024-03-23T07:44:14;8.90;99.90
20376;DHT22;10347;51.828;6.466;2024-03-23T07:46:39;8.90;99.90
20376;DHT22;10347;51.828;6.466;2024-03-23T07:49:05;8.90;99.90
20376;DHT22;10347;51.828;6.466;2024-03-23T07:51:31;9.00;99.90
20376;DHT22;10347;51.828;6.466;2024-03-23T07:53:56;9.00;99.90
20376;DHT22;10347;51.828;6.466;2024-03-23T07:56:22;9.00;99.90
20376;DHT22;10347;51.828;6.466;2024-03-23T07:58:49;9.10;99.90
20376;DHT22;10347;51.828;6.466;2024-03-23T08:01:16;9.10;99.90
20376;DHT22;10347;51.828;6.466;2024-03-23T08:03:43;9.00;99.90
20376;DHT22;10347;51.828;6.466;2024-03-23T08:06:16;8.90;99.90
20376;DHT22;10347;51.828;6.466;2024-03-23T08:08:44;8.90;99.90
20376;DHT22;10347;51.828;6.466;2024-03-23T08:11:11;8.90;99.90
20376;DHT22;10347;51.828;6.466;2024-03-23T08:13:39;8.80;99.90
20376;DHT22;10347;51.828;6.466;2024-03-23T08:16:05;8.80;99.90
20376;DHT22;10347;51.828;6.466;2024-03-23T08:18:31;8.70;99.90
20376;DHT22;10347;51.828;6.466;2024-03-23T08:21:02;8.70;99.90
20376;DHT22;10347;51.828;6.466;2024-03-23T08:23:29;8.70;99.90
20376;DHT22;10347;51.828;6.466;2024-03-23T08:25:59;8.80;99.90
20376;DHT22;10347;51.828;6.466;2024-03-23T08:28:25;8.80;99.90
20376;DHT22;10347;51.828;6.466;2024-03-23T08:30:52;8.80;99.90
20376;DHT22;10347;51.828;6.466;2024-03-23T08:33:18;8.90;99.90
20376;DHT22;10347;51.828;6.466;2024-03-23T08:35:59;8.90;99.90
20376;DHT22;10347;51.828;6.466;2024-03-23T08:38:26;8.90;99.90
20376;DHT22;10347;51.828;6.466;2024-03-23T08:41:05;8.80;99.90
20376;DHT22;10347;51.828;6.466;2024-03-23T08:43:41;8.80;99.90
20376;DHT22;10347;51.828;6.466;2024-03-23T08:46:08;8.90;99.90
20376;DHT22;10347;51.828;6.466;2024-03-23T08:48:42;8.90;99.90
20376;DHT22;10347;51.828;6.466;2024-03-23T08:51:16;9.00;99.90
20376;DHT22;10347;51.828;6.466;2024-03-23T08:53:42;9.00;99.90
20376;DHT22;10347;51.828;6.466;2024-03-23T08:56:08;9.10;99.90
20376;DHT22;10347;51.828;6.466;2024-03-23T08:58:36;9.00;99.90
20376;DHT22;10347;51.828;6.466;2024-03-23T09:01:06;9.00;99.90
20376;DHT22;10347;51.828;6.466;2024-03-23T09:03:32;9.00;99.90
20376;DHT22;10347;51.828;6.466;2024-03-23T09:05:57;9.10;99.90
20376;DHT22;10347;51.828;6.466;2024-03-23T09:08:24;9.10;99.90
20376;DHT22;10347;51.828;6.466;2024-03-23T09:10:49;9.20;99.90
20376;DHT22;10347;51.828;6.466;2024-03-23T09:13:15;9.20;99.90
20376;DHT22;10347;51.828;6.466;2024-03-23T09:15:51;9.20;99.90
20376;DHT22;10347;51.828;6.466;2024-03-23T09:18:21;9.30;99.90
20376;DHT22;10347;51.828;6.466;2024-03-23T09:20:47;9.30;99.90
20376;DHT22;10347;51.828;6.466;2024-03-23T09:23:12;9.30;99.90
20376;DHT22;10347;51.828;6.466;2024-03-23T09:25:39;9.50;99.90
20376;DHT22;10347;51.828;6.466;2024-03-23T09:28:05;9.50;99.90
20376;DHT22;10347;51.828;6.466;2024-03-23T09:30:32;9.50;99.90
20376;DHT22;10347;51.828;6.466;2024-03-23T09:32:58;9.50;99.90
20376;DHT22;10347;51.828;6.466;2024-03-23T09:35:24;9.60;99.90
20376;DHT22;10347;51.828;6.466;2024-03-23T09:37:49;9.60;99.90
20376;DHT22;10347;51.828;6.466;2024-03-23T09:40:15;9.60;99.90
20376;DHT22;10347;51.828;6.466;2024-03-23T09:42:41;9.70;99.90
20376;DHT22;10347;51.828;6.466;2024-03-23T09:45:20;9.70;99.90
20376;DHT22;10347;51.828;6.466;2024-03-23T09:47:46;9.70;99.90
20376;DHT22;10347;51.828;6.466;2024-03-23T09:50:13;9.80;99.90
20376;DHT22;10347;51.828;6.466;2024-03-23T09:52:39;9.80;99.90
20376;DHT22;10347;51.828;6.466;2024-03-23T09:55:08;9.80;99.90
20376;DHT22;10347;51.828;6.466;2024-03-23T09:57:34;9.80;99.90
20376;DHT22;10347;51.828;6.466;2024-03-23T09:59:59;9.80;99.90
20376;DHT22;10347;51.828;6.466;2024-03-23T10:02:26;9.70;99.90
20376;DHT22;10347;51.828;6.466;2024-03-23T10:04:51;9.70;99.90
20376;DHT22;10347;51.828;6.466;2024-03-23T10:07:21;9.60;99.90
20376;DHT22;10347;51.828;6.466;2024-03-23T10:09:48;9.70;99.90
20376;DHT22;10347;51.828;6.466;2024-03-23T10:12:18;9.60;99.90
20376;DHT22;10347;51.828;6.466;2024-03-23T10:14:44;9.50;99.90
20376;DHT22;10347;51.828;6.466;2024-03-23T10:17:15;9.50;99.90
20376;DHT22;10347;51.828;6.466;2024-03-23T10:22:13;9.60;99.90
20376;DHT22;10347;51.828;6.466;2024-03-23T10:24:41;9.60;99.90
20376;DHT22;10347;51.828;6.466;2024-03-23T10:27:06;9.60;99.90
20376;DHT22;10347;51.828;6.466;2024-03-23T10:29:32;9.50;99.90
20376;DHT22;10347;51.828;6.466;2024-03-23T10:32:11;9.50;99.90
20376;DHT22;10347;51.828;6.466;2024-03-23T10:34:37;9.50;99.90
20376;DHT22;10347;51.828;6.466;2024-03-23T10:37:03;9.50;99.90
20376;DHT22;10347;51.828;6.466;2024-03-23T10:39:39;9.40;99.90
20376;DHT22;10347;51.828;6.466;2024-03-23T10:42:07;9.40;99.90
20376;DHT22;10347;51.828;6.466;2024-03-23T10:44:36;9.50;99.90
20376;DHT22;10347;51.828;6.466;2024-03-23T10:47:03;9.50;99.90
20376;DHT22;10347;51.828;6.466;2024-03-23T10:49:30;9.60;99.90
20376;DHT22;10347;51.828;6.466;2024-03-23T10:52:05;9.70;99.90
20376;DHT22;10347;51.828;6.466;2024-03-23T10:54:32;9.70;99.90
20376;DHT22;10347;51.828;6.466;2024-03-23T10:57:11;9.70;99.90
20376;DHT22;10347;51.828;6.466;2024-03-23T10:59:38;9.80;99.90
20376;DHT22;10347;51.828;6.466;2024-03-23T11:02:04;9.90;99.90
20376;DHT22;10347;51.828;6.466;2024-03-23T11:04:34;10.00;99.90
20376;DHT22;10347;51.828;6.466;2024-03-23T11:09:45;10.10;99.90
20376;DHT22;10347;51.828;6.466;2024-03-23T11:14:42;10.20;99.90
20376;DHT22;10347;51.828;6.466;2024-03-23T11:17:09;10.40;99.90
20376;DHT22;10347;51.828;6.466;2024-03-23T11:19:38;10.40;99.90
20376;DHT22;10347;51.828;6.466;2024-03-23T11:22:05;10.40;99.90
20376;DHT22;10347;51.828;6.466;2024-03-23T11:24:31;10.30;99.90
20376;DHT22;10347;51.828;6.466;2024-03-23T11:26:57;10.30;99.90
20376;DHT22;10347;51.828;6.466;2024-03-23T11:29:29;10.30;99.90
20376;DHT22;10347;51.828;6.466;2024-03-23T11:31:55;10.30;99.90
20376;DHT22;10347;51.828;6.466;2024-03-23T11:34:22;10.30;99.90
20376;DHT22;10347;51.828;6.466;2024-03-23T11:36:48;10.40;99.90
20376;DHT22;10347;51.828;6.466;2024-03-23T11:39:17;10.40;99.90
20376;DHT22;10347;51.828;6.466;2024-03-23T11:41:50;10.40;99.90
20376;DHT22;10347;51.828;6.466;2024-03-23T11:46:42;10.50;99.90
20376;DHT22;10347;51.828;6.466;2024-03-23T11:49:21;10.60;99.90
20376;DHT22;10347;51.828;6.466;2024-03-23T11:51:51;10.60;99.90
20376;DHT22;10347;51.828;6.466;2024-03-23T11:54:21;10.70;99.90
20376;DHT22;10347;51.828;6.466;2024-03-23T11:57:01;10.80;99.90
20376;DHT22;10347;51.828;6.466;2024-03-23T11:59:32;10.80;99.90
20376;DHT22;10347;51.828;6.466;2024-03-23T12:01:58;10.80;99.90
20376;DHT22;10347;51.828;6.466;2024-03-23T12:04:30;10.90;99.90
20376;DHT22;10347;51.828;6.466;2024-03-23T12:09:35;11.00;99.90
20376;DHT22;10347;51.828;6.466;2024-03-23T12:12:17;11.10;99.90
20376;DHT22;10347;51.828;6.466;2024-03-23T12:14:44;11.10;99.90
20376;DHT22;10347;51.828;6.466;2024-03-23T12:17:14;11.20;99.90
20376;DHT22;10347;51.828;6.466;2024-03-23T12:19:41;11.30;99.90
20376;DHT22;10347;51.828;6.466;2024-03-23T12:22:07;11.30;99.90
20376;DHT22;10347;51.828;6.466;2024-03-23T12:24:34;11.40;99.90
20376;DHT22;10347;51.828;6.466;2024-03-23T12:27:01;11.30;99.90
20376;DHT22;10347;51.828;6.466;2024-03-23T12:29:31;11.20;99.90
20376;DHT22;10347;51.828;6.466;2024-03-23T12:32:01;11.00;99.90
20376;DHT22;10347;51.828;6.466;2024-03-23T12:34:27;10.90;99.90
20376;DHT22;10347;51.828;6.466;2024-03-23T12:36:53;10.70;99.90
20376;DHT22;10347;51.828;6.466;2024-03-23T12:39:19;10.60;99.90
20376;DHT22;10347;51.828;6.466;2024-03-23T12:41:48;10.50;99.90
20376;DHT22;10347;51.828;6.466;2024-03-23T12:44:15;10.30;99.90
20376;DHT22;10347;51.828;6.466;2024-03-23T12:46:41;10.30;99.90
20376;DHT22;10347;51.828;6.466;2024-03-23T12:49:07;10.30;99.90
20376;DHT22;10347;51.828;6.466;2024-03-23T12:51:33;10.20;99.90
20376;DHT22;10347;51.828;6.466;2024-03-23T12:53:59;10.20;99.90
20376;DHT22;10347;51.828;6.466;2024-03-23T12:56:25;10.20;99.90
20376;DHT22;10347;51.828;6.466;2024-03-23T12:58:50;10.20;99.90
20376;DHT22;10347;51.828;6.466;2024-03-23T13:01:20;10.30;99.90
20376;DHT22;10347;51.828;6.466;2024-03-23T13:03:49;10.30;99.90
20376;DHT22;10347;51.828;6.466;2024-03-23T13:06:16;10.40;99.90
20376;DHT22;10347;51.828;6.466;2024-03-23T13:08:44;10.40;99.90
20376;DHT22;10347;51.828;6.466;2024-03-23T13:11:10;10.50;99.90
20376;DHT22;10347;51.828;6.466;2024-03-23T13:13:36;10.60;99.90
20376;DHT22;10347;51.828;6.466;2024-03-23T13:16:02;10.60;99.90
20376;DHT22;10347;51.828;6.466;2024-03-23T13:18:29;10.70;99.90
20376;DHT22;10347;51.828;6.466;2024-03-23T13:20:55;10.90;99.90
20376;DHT22;10347;51.828;6.466;2024-03-23T13:23:20;10.90;99.90
20376;DHT22;10347;51.828;6.466;2024-03-23T13:25:54;11.00;99.90
20376;DHT22;10347;51.828;6.466;2024-03-23T13:28:20;11.20;99.90
20376;DHT22;10347;51.828;6.466;2024-03-23T13:30:53;11.20;99.90
20376;DHT22;10347;51.828;6.466;2024-03-23T13:33:19;11.30;99.90
20376;DHT22;10347;51.828;6.466;2024-03-23T13:35:54;11.30;99.90
20376;DHT22;10347;51.828;6.466;2024-03-23T13:38:23;11.30;99.90
20376;DHT22;10347;51.828;6.466;2024-03-23T13:40:57;11.40;99.90
20376;DHT22;10347;51.828;6.466;2024-03-23T13:43:24;11.40;99.90
20376;DHT22;10347;51.828;6.466;2024-03-23T13:45:53;11.40;99.90
20376;DHT22;10347;51.828;6.466;2024-03-23T13:48:20;11.40;99.90
20376;DHT22;10347;51.828;6.466;2024-03-23T13:50:47;11.50;99.90
20376;DHT22;10347;51.828;6.466;2024-03-23T13:53:15;11.40;99.90
20376;DHT22;10347;51.828;6.466;2024-03-23T13:55:47;11.40;99.90
20376;DHT22;10347;51.828;6.466;2024-03-23T13:58:16;11.40;99.90
20376;DHT22;10347;51.828;6.466;2024-03-23T14:00:42;11.40;99.90
20376;DHT22;10347;51.828;6.466;2024-03-23T14:03:11;11.40;99.90
20376;DHT22;10347;51.828;6.466;2024-03-23T14:05:37;11.30;99.90
20376;DHT22;10347;51.828;6.466;2024-03-23T14:08:09;11.30;99.90
20376;DHT22;10347;51.828;6.466;2024-03-23T14:10:44;11.30;99.90
20376;DHT22;10347;51.828;6.466;2024-03-23T14:13:10;11.20;99.90
20376;DHT22;10347;51.828;6.466;2024-03-23T14:15:36;11.10;99.90
20376;DHT22;10347;51.828;6.466;2024-03-23T14:18:04;11.00;99.90
20376;DHT22;10347;51.828;6.466;2024-03-23T14:20:30;10.90;99.90
20376;DHT22;10347;51.828;6.466;2024-03-23T14:22:56;10.80;99.90
20376;DHT22;10347;51.828;6.466;2024-03-23T14:25:21;10.70;99.90
20376;DHT22;10347;51.828;6.466;2024-03-23T14:27:52;10.70;99.90
20376;DHT22;10347;51.828;6.466;2024-03-23T14:30:18;10.70;99.90
20376;DHT22;10347;51.828;6.466;2024-03-23T14:32:44;10.80;99.90
20376;DHT22;10347;51.828;6.466;2024-03-23T14:35:09;10.90;99.90
20376;DHT22;10347;51.828;6.466;2024-03-23T14:37:38;10.80;99.90
20376;DHT22;10347;51.828;6.466;2024-03-23T14:40:05;10.70;99.90
20376;DHT22;10347;51.828;6.466;2024-03-23T14:42:32;10.80;99.90
20376;DHT22;10347;51.828;6.466;2024-03-23T14:44:58;10.90;99.90
20376;DHT22;10347;51.828;6.466;2024-03-23T14:47:23;10.90;99.90
20376;DHT22;10347;51.828;6.466;2024-03-23T14:49:49;11.10;99.90
20376;DHT22;10347;51.828;6.466;2024-03-23T14:52:16;11.20;99.90
20376;DHT22;10347;51.828;6.466;2024-03-23T14:54:42;11.30;99.90
20376;DHT22;10347;51.828;6.466;2024-03-23T14:57:08;11.20;99.90
20376;DHT22;10347;51.828;6.466;2024-03-23T14:59:35;11.40;99.90
20376;DHT22;10347;51.828;6.466;2024-03-23T15:02:01;11.50;99.90
20376;DHT22;10347;51.828;6.466;2024-03-23T15:04:26;11.50;99.90
20376;DHT22;10347;51.828;6.466;2024-03-23T15:06:52;11.70;99.90
20376;DHT22;10347;51.828;6.466;2024-03-23T15:09:18;11.70;99.90
20376;DHT22;10347;51.828;6.466;2024-03-23T15:11:43;11.70;99.90
20376;DHT22;10347;51.828;6.466;2024-03-23T15:14:09;11.60;99.90
20376;DHT22;10347;51.828;6.466;2024-03-23T15:16:36;11.60;99.90
20376;DHT22;10347;51.828;6.466;2024-03-23T15:19:02;11.60;99.90
20376;DHT22;10347;51.828;6.466;2024-03-23T15:21:27;11.60;99.90
20376;DHT22;10347;51.828;6.466;2024-03-23T15:23:53;11.60;99.90
20376;DHT22;10347;51.828;6.466;2024-03-23T15:26:19;11.70;99.90
20376;DHT22;10347;51.828;6.466;2024-03-23T15:28:48;11.70;99.90
20376;DHT22;10347;51.828;6.466;2024-03-23T15:31:23;11.70;99.90
20376;DHT22;10347;51.828;6.466;2024-03-23T15:33:48;11.50;99.90
20376;DHT22;10347;51.828;6.466;2024-03-23T15:36:14;11.30;99.90
20376;DHT22;10347;51.828;6.466;2024-03-23T15:38:40;11.20;99.90
20376;DHT22;10347;51.828;6.466;2024-03-23T15:41:06;11.10;99.90
20376;DHT22;10347;51.828;6.466;2024-03-23T15:43:33;11.00;99.90
20376;DHT22;10347;51.828;6.466;2024-03-23T15:46:00;11.00;99.90
20376;DHT22;10347;51.828;6.466;2024-03-23T15:48:30;10.90;99.90
20376;DHT22;10347;51.828;6.466;2024-03-23T15:50:58;10.80;99.90
20376;DHT22;10347;51.828;6.466;2024-03-23T15:53:25;10.70;99.90
20376;DHT22;10347;51.828;6.466;2024-03-23T15:55:54;10.60;99.90
20376;DHT22;10347;51.828;6.466;2024-03-23T15:58:20;10.60;99.90
20376;DHT22;10347;51.828;6.466;2024-03-23T16:01:02;10.60;99.90
20376;DHT22;10347;51.828;6.466;2024-03-23T16:03:29;10.60;99.90
20376;DHT22;10347;51.828;6.466;2024-03-23T16:05:57;10.50;99.90
20376;DHT22;10347;51.828;6.466;2024-03-23T16:08:23;10.40;99.90
20376;DHT22;10347;51.828;6.466;2024-03-23T16:10:49;10.40;99.90
20376;DHT22;10347;51.828;6.466;2024-03-23T16:13:14;10.30;99.90
20376;DHT22;10347;51.828;6.466;2024-03-23T16:15:40;10.30;99.90
20376;DHT22;10347;51.828;6.466;2024-03-23T16:18:06;10.30;99.90
20376;DHT22;10347;51.828;6.466;2024-03-23T16:20:32;10.20;99.90
20376;DHT22;10347;51.828;6.466;2024-03-23T16:23:03;10.30;99.90
20376;DHT22;10347;51.828;6.466;2024-03-23T16:25:28;10.20;99.90
20376;DHT22;10347;51.828;6.466;2024-03-23T16:27:55;10.20;99.90
20376;DHT22;10347;51.828;6.466;2024-03-23T16:30:21;10.30;99.90
20376;DHT22;10347;51.828;6.466;2024-03-23T16:32:49;10.30;99.90
20376;DHT22;10347;51.828;6.466;2024-03-23T16:35:15;10.30;99.90
20376;DHT22;10347;51.828;6.466;2024-03-23T16:37:41;10.20;99.90
20376;DHT22;10347;51.828;6.466;2024-03-23T16:40:07;10.20;99.90
20376;DHT22;10347;51.828;6.466;2024-03-23T16:42:35;10.20;99.90
20376;DHT22;10347;51.828;6.466;2024-03-23T16:45:00;10.30;99.90